createdAt,value
2018-05-04T00:00:06.394Z,39.70
2018-05-04T00:01:05.709Z,39.60
2018-05-04T00:02:05.949Z,39.70
2018-05-04T00:03:05.935Z,39.80
2018-05-04T00:04:06.603Z,39.90
2018-05-04T00:05:08.046Z,40.20
2018-05-04T00:06:06.679Z,40.20
2018-05-04T00:07:06.387Z,40.20
2018-05-04T00:08:06.801Z,40.30
2018-05-04T00:09:08.242Z,40.40
2018-05-04T00:10:06.287Z,40.40
2018-05-04T00:11:05.784Z,40.40
2018-05-04T00:12:06.409Z,40.40
2018-05-04T00:13:10.618Z,40.40
2018-05-04T00:14:06.265Z,40.40
2018-05-04T00:15:06.343Z,40.40
2018-05-04T00:16:08.605Z,40.40
2018-05-04T00:17:08.911Z,40.40
2018-05-04T00:18:15.111Z,40.50
2018-05-04T00:19:05.707Z,40.50
2018-05-04T00:20:06.667Z,40.70
2018-05-04T00:21:05.800Z,40.70
2018-05-04T00:22:11.154Z,41.00
2018-05-04T00:23:05.989Z,41.00
2018-05-04T00:24:11.414Z,41.20
2018-05-04T00:25:06.348Z,41.20
2018-05-04T00:26:06.301Z,41.20
2018-05-04T00:27:09.093Z,41.00
2018-05-04T00:28:08.212Z,41.10
2018-05-04T00:29:08.265Z,41.20
2018-05-04T00:30:05.801Z,41.20
2018-05-04T00:31:06.617Z,41.30
2018-05-04T00:32:08.992Z,41.40
2018-05-04T00:33:08.003Z,41.50
2018-05-04T00:34:09.706Z,41.40
2018-05-04T00:35:08.150Z,41.40
2018-05-04T00:36:08.108Z,41.70
2018-05-04T00:37:05.604Z,41.60
2018-05-04T00:38:05.560Z,41.60
2018-05-04T00:39:08.627Z,41.70
2018-05-04T00:40:06.060Z,41.70
2018-05-04T00:41:05.826Z,41.70
2018-05-04T00:42:06.149Z,41.80
2018-05-04T00:43:05.848Z,41.90
2018-05-04T00:44:06.643Z,41.80
2018-05-04T00:45:06.025Z,41.90
2018-05-04T00:46:05.687Z,41.90
2018-05-04T00:47:06.535Z,41.90
2018-05-04T00:48:09.335Z,42.00
2018-05-04T00:49:05.996Z,42.00
2018-05-04T00:50:06.278Z,42.00
2018-05-04T00:51:05.926Z,42.00
2018-05-04T00:52:10.772Z,42.10
2018-05-04T00:53:09.790Z,42.20
2018-05-04T00:54:06.252Z,42.20
2018-05-04T00:55:06.314Z,42.30
2018-05-04T00:56:05.668Z,42.40
2018-05-04T00:57:08.677Z,42.40
2018-05-04T00:58:06.539Z,42.40
2018-05-04T00:59:08.845Z,42.50
2018-05-04T01:00:06.699Z,42.50
2018-05-04T01:01:06.349Z,42.60
2018-05-04T01:02:06.154Z,42.50
2018-05-04T01:03:06.271Z,42.50
2018-05-04T01:04:08.152Z,42.40
2018-05-04T01:05:05.702Z,42.40
2018-05-04T01:06:08.338Z,42.30
2018-05-04T01:07:06.382Z,42.20
2018-05-04T01:08:05.945Z,42.20
2018-05-04T01:09:05.706Z,42.30
2018-05-04T01:10:06.289Z,42.20
2018-05-04T01:11:08.889Z,42.20
2018-05-04T01:12:06.380Z,42.20
2018-05-04T01:13:05.770Z,42.20
2018-05-04T01:14:06.141Z,42.20
2018-05-04T01:15:05.614Z,42.30
2018-05-04T01:16:10.176Z,42.30
2018-05-04T01:17:05.804Z,42.30
2018-05-04T01:18:06.338Z,42.30
2018-05-04T01:19:08.374Z,42.30
2018-05-04T01:20:06.320Z,42.30
2018-05-04T01:21:10.788Z,42.20
2018-05-04T01:22:06.302Z,42.00
2018-05-04T01:23:11.084Z,42.10
2018-05-04T01:24:08.609Z,42.20
2018-05-04T01:25:08.631Z,42.30
2018-05-04T01:26:06.172Z,42.20
2018-05-04T01:27:06.336Z,42.20
2018-05-04T01:28:06.038Z,42.10
2018-05-04T01:29:09.065Z,42.00
2018-05-04T01:30:05.503Z,42.00
2018-05-04T01:31:11.273Z,41.90
2018-05-04T01:32:05.867Z,41.80
2018-05-04T01:33:06.104Z,41.70
2018-05-04T01:34:10.607Z,41.60
2018-05-04T01:35:08.836Z,41.80
2018-05-04T01:36:06.301Z,41.80
2018-05-04T01:37:09.177Z,42.00
2018-05-04T01:38:10.698Z,42.00
2018-05-04T01:39:06.300Z,42.00
2018-05-04T01:40:06.401Z,42.00
2018-05-04T01:41:08.757Z,42.20
2018-05-04T01:42:10.375Z,42.30
2018-05-04T01:43:08.479Z,42.40
2018-05-04T01:44:05.905Z,42.40
2018-05-04T01:45:08.483Z,42.30
2018-05-04T01:46:08.414Z,42.40
2018-05-04T01:47:10.951Z,42.30
2018-05-04T01:48:05.913Z,42.30
2018-05-04T01:49:09.584Z,42.50
2018-05-04T01:50:09.498Z,42.50
2018-05-04T01:51:06.366Z,42.60
2018-05-04T01:52:06.327Z,42.50
2018-05-04T01:53:10.937Z,42.60
2018-05-04T01:54:09.667Z,42.60
2018-05-04T01:55:06.601Z,42.60
2018-05-04T01:56:06.168Z,42.60
2018-05-04T01:57:06.689Z,42.70
2018-05-04T01:58:17.443Z,42.70
2018-05-04T01:59:08.399Z,42.70
2018-05-04T02:00:05.622Z,42.80
2018-05-04T02:01:08.589Z,42.70
2018-05-04T02:02:11.121Z,42.70
2018-05-04T02:03:08.801Z,42.60
2018-05-04T02:04:06.584Z,42.60
2018-05-04T02:05:05.568Z,42.70
2018-05-04T02:06:06.776Z,42.90
2018-05-04T02:07:10.565Z,43.00
2018-05-04T02:08:06.524Z,43.00
2018-05-04T02:09:07.990Z,43.10
2018-05-04T02:10:10.404Z,43.10
2018-05-04T02:11:08.453Z,43.20
2018-05-04T02:12:11.030Z,43.30
2018-05-04T02:13:05.519Z,43.30
2018-05-04T02:14:05.932Z,43.30
2018-05-04T02:15:08.096Z,43.30
2018-05-04T02:16:05.919Z,43.30
2018-05-04T02:17:12.512Z,43.40
2018-05-04T02:18:08.697Z,43.40
2018-05-04T02:19:06.675Z,43.50
2018-05-04T02:20:09.645Z,43.50
2018-05-04T02:21:13.796Z,43.60
2018-05-04T02:22:09.048Z,43.70
2018-05-04T02:23:06.104Z,43.70
2018-05-04T02:24:10.671Z,43.80
2018-05-04T02:25:11.284Z,43.90
2018-05-04T02:26:09.416Z,44.00
2018-05-04T02:27:08.491Z,44.10
2018-05-04T02:28:05.706Z,44.20
2018-05-04T02:29:06.379Z,44.10
2018-05-04T02:30:05.958Z,44.10
2018-05-04T02:31:10.769Z,44.20
2018-05-04T02:32:06.582Z,44.20
2018-05-04T02:33:06.625Z,44.10
2018-05-04T02:34:06.357Z,44.10
2018-05-04T02:35:06.315Z,44.10
2018-05-04T02:36:15.190Z,44.40
2018-05-04T02:37:05.722Z,44.40
2018-05-04T02:38:05.597Z,44.30
2018-05-04T02:39:11.663Z,44.50
2018-05-04T02:40:06.475Z,44.40
2018-05-04T02:41:11.027Z,44.50
2018-05-04T02:42:05.582Z,44.50
2018-05-04T02:43:11.224Z,44.50
2018-05-04T02:44:05.440Z,44.40
2018-05-04T02:45:05.482Z,44.50
2018-05-04T02:46:06.432Z,44.60
2018-05-04T02:47:06.420Z,44.70
2018-05-04T02:48:06.573Z,44.70
2018-05-04T02:49:06.364Z,44.80
2018-05-04T02:50:10.857Z,45.00
2018-05-04T02:51:06.573Z,45.00
2018-05-04T02:52:08.703Z,45.00
2018-05-04T02:53:12.213Z,45.00
2018-05-04T02:54:08.372Z,44.90
2018-05-04T02:55:10.064Z,44.80
2018-05-04T02:56:10.755Z,44.80
2018-05-04T02:57:09.251Z,44.70
2018-05-04T02:58:05.852Z,44.70
2018-05-04T02:59:06.093Z,44.80
2018-05-04T03:00:10.612Z,44.90
2018-05-04T03:01:05.639Z,44.80
2018-05-04T03:02:05.837Z,45.00
2018-05-04T03:03:05.440Z,45.00
2018-05-04T03:04:06.390Z,45.10
2018-05-04T03:05:12.287Z,45.20
2018-05-04T03:06:05.997Z,45.20
2018-05-04T03:07:05.978Z,45.30
2018-05-04T03:08:09.027Z,45.40
2018-05-04T03:09:08.185Z,45.50
2018-05-04T03:10:16.529Z,45.60
2018-05-04T03:11:06.274Z,45.60
2018-05-04T03:12:08.434Z,45.60
2018-05-04T03:13:05.563Z,45.60
2018-05-04T03:14:09.465Z,45.60
2018-05-04T03:15:06.167Z,45.60
2018-05-04T03:16:10.622Z,45.70
2018-05-04T03:17:06.603Z,45.70
2018-05-04T03:18:11.263Z,45.70
2018-05-04T03:19:06.117Z,45.70
2018-05-04T03:20:06.182Z,45.80
2018-05-04T03:21:08.717Z,45.50
2018-05-04T03:22:05.608Z,45.50
2018-05-04T03:23:11.543Z,45.40
2018-05-04T03:24:11.109Z,45.40
2018-05-04T03:25:08.363Z,45.40
2018-05-04T03:26:08.519Z,45.30
2018-05-04T03:27:05.941Z,45.40
2018-05-04T03:28:10.899Z,45.20
2018-05-04T03:29:05.954Z,45.20
2018-05-04T03:30:10.764Z,45.20
2018-05-04T03:31:06.233Z,45.10
2018-05-04T03:32:13.614Z,44.60
2018-05-04T03:33:09.035Z,44.60
2018-05-04T03:34:10.822Z,44.70
2018-05-04T03:35:06.401Z,44.70
2018-05-04T03:36:08.644Z,44.70
2018-05-04T03:37:06.082Z,44.70
2018-05-04T03:38:05.820Z,44.50
2018-05-04T03:39:10.704Z,44.70
2018-05-04T03:40:06.377Z,44.70
2018-05-04T03:41:10.912Z,44.50
2018-05-04T03:42:05.591Z,44.40
2018-05-04T03:43:08.234Z,44.60
2018-05-04T03:44:08.855Z,44.60
2018-05-04T03:45:06.902Z,44.50
2018-05-04T03:46:10.860Z,44.50
2018-05-04T03:47:06.259Z,44.50
2018-05-04T03:48:06.383Z,44.50
2018-05-04T03:49:08.193Z,44.50
2018-05-04T03:50:09.500Z,44.40
2018-05-04T03:51:08.867Z,44.20
2018-05-04T03:52:06.997Z,44.30
2018-05-04T03:53:08.079Z,44.30
2018-05-04T03:54:10.692Z,44.30
2018-05-04T03:55:11.324Z,44.20
2018-05-04T03:56:08.435Z,44.10
2018-05-04T03:57:09.108Z,43.80
2018-05-04T03:58:08.567Z,43.90
2018-05-04T03:59:05.471Z,43.90
2018-05-04T04:00:05.658Z,44.00
2018-05-04T04:01:08.400Z,44.00
2018-05-04T04:02:05.871Z,44.00
2018-05-04T04:03:06.560Z,44.00
2018-05-04T04:04:09.411Z,43.80
2018-05-04T04:05:06.079Z,43.80
2018-05-04T04:06:08.966Z,43.70
2018-05-04T04:07:06.256Z,43.70
2018-05-04T04:08:05.883Z,43.80
2018-05-04T04:09:05.491Z,43.70
2018-05-04T04:10:06.195Z,43.70
2018-05-04T04:11:05.928Z,43.70
2018-05-04T04:12:09.468Z,43.60
2018-05-04T04:13:05.964Z,43.70
2018-05-04T04:14:06.760Z,43.70
2018-05-04T04:15:06.237Z,43.70
2018-05-04T04:16:06.121Z,43.70
2018-05-04T04:17:06.376Z,43.50
2018-05-04T04:18:05.787Z,43.60
2018-05-04T04:19:08.338Z,43.10
2018-05-04T04:20:06.434Z,43.10
2018-05-04T04:21:06.420Z,43.00
2018-05-04T04:22:06.074Z,43.00
2018-05-04T04:23:10.514Z,42.50
2018-05-04T04:24:10.166Z,42.40
2018-05-04T04:25:09.344Z,42.50
2018-05-04T04:26:05.838Z,42.50
2018-05-04T04:27:08.949Z,42.30
2018-05-04T04:28:13.532Z,42.40
2018-05-04T04:29:11.148Z,42.40
2018-05-04T04:30:08.491Z,42.20
2018-05-04T04:31:06.148Z,42.20
2018-05-04T04:32:06.263Z,42.30
2018-05-04T04:33:06.833Z,42.20
2018-05-04T04:34:06.200Z,42.20
2018-05-04T04:35:05.940Z,41.80
2018-05-04T04:36:08.480Z,41.70
2018-05-04T04:37:06.091Z,41.70
2018-05-04T04:38:09.297Z,41.70
2018-05-04T04:39:05.944Z,41.70
2018-05-04T04:40:05.691Z,41.80
2018-05-04T04:41:05.938Z,41.80
2018-05-04T04:42:10.863Z,41.40
2018-05-04T04:43:06.260Z,41.50
2018-05-04T04:44:06.499Z,41.20
2018-05-04T04:45:09.324Z,40.90
2018-05-04T04:46:08.515Z,40.80
2018-05-04T04:47:06.580Z,40.80
2018-05-04T04:48:08.725Z,40.50
2018-05-04T04:49:10.317Z,40.40
2018-05-04T04:50:05.795Z,40.50
2018-05-04T04:51:06.658Z,40.20
2018-05-04T04:52:06.471Z,39.90
2018-05-04T04:53:08.817Z,40.10
2018-05-04T04:54:08.980Z,40.20
2018-05-04T04:55:08.203Z,40.20
2018-05-04T04:56:08.490Z,40.00
2018-05-04T04:57:06.008Z,40.00
2018-05-04T04:58:06.113Z,39.70
2018-05-04T04:59:06.908Z,39.60
2018-05-04T05:00:09.295Z,39.20
2018-05-04T05:01:07.624Z,39.10
2018-05-04T05:02:06.285Z,39.00
2018-05-04T05:03:06.289Z,39.00
2018-05-04T05:04:05.536Z,39.20
2018-05-04T05:05:06.906Z,39.40
2018-05-04T05:06:05.788Z,39.20
2018-05-04T05:07:11.738Z,39.00
2018-05-04T05:08:08.492Z,38.90
2018-05-04T05:09:05.960Z,38.80
2018-05-04T05:10:08.994Z,38.80
2018-05-04T05:11:10.727Z,38.80
2018-05-04T05:12:08.804Z,38.50
2018-05-04T05:13:06.860Z,38.50
2018-05-04T05:14:05.512Z,38.60
2018-05-04T05:15:06.503Z,38.40
2018-05-04T05:16:11.209Z,38.30
2018-05-04T05:17:06.198Z,38.30
2018-05-04T05:18:05.971Z,38.60
2018-05-04T05:19:06.182Z,38.50
2018-05-04T05:20:06.125Z,38.50
2018-05-04T05:21:06.097Z,38.40
2018-05-04T05:22:05.805Z,38.20
2018-05-04T05:23:08.310Z,38.20
2018-05-04T05:24:08.370Z,38.00
2018-05-04T05:25:16.027Z,38.00
2018-05-04T05:26:10.709Z,38.00
2018-05-04T05:27:06.351Z,37.80
2018-05-04T05:28:08.948Z,37.90
2018-05-04T05:29:07.904Z,37.40
2018-05-04T05:30:09.322Z,37.50
2018-05-04T05:31:06.579Z,37.50
2018-05-04T05:32:11.584Z,37.50
2018-05-04T05:33:06.315Z,37.60
2018-05-04T05:34:08.457Z,37.40
2018-05-04T05:35:08.433Z,37.20
2018-05-04T05:36:11.099Z,37.40
2018-05-04T05:37:06.924Z,37.30
2018-05-04T05:38:09.919Z,37.20
2018-05-04T05:39:06.892Z,37.30
2018-05-04T05:40:06.395Z,37.60
2018-05-04T05:41:06.504Z,37.60
2018-05-04T05:42:06.207Z,37.70
2018-05-04T05:43:06.231Z,37.80
2018-05-04T05:44:11.255Z,37.50
2018-05-04T05:45:05.823Z,37.50
2018-05-04T05:46:09.008Z,37.20
2018-05-04T05:47:05.817Z,37.30
2018-05-04T05:48:16.431Z,37.20
2018-05-04T05:49:06.036Z,37.20
2018-05-04T05:50:06.500Z,37.10
2018-05-04T05:51:07.305Z,36.60
2018-05-04T05:52:11.108Z,36.50
2018-05-04T05:53:08.219Z,36.60
2018-05-04T05:54:06.014Z,36.60
2018-05-04T05:55:05.984Z,36.50
2018-05-04T05:56:06.068Z,36.50
2018-05-04T05:57:16.404Z,36.60
2018-05-04T05:58:06.311Z,36.50
2018-05-04T05:59:08.966Z,36.10
2018-05-04T06:00:08.958Z,36.20
2018-05-04T06:01:05.540Z,36.20
2018-05-04T06:02:05.928Z,36.20
2018-05-04T06:03:08.312Z,35.70
2018-05-04T06:04:10.859Z,35.60
2018-05-04T06:05:06.671Z,35.50
2018-05-04T06:06:06.361Z,35.60
2018-05-04T06:07:07.277Z,35.80
2018-05-04T06:08:05.942Z,36.00
2018-05-04T06:09:05.513Z,35.90
2018-05-04T06:10:05.716Z,36.00
2018-05-04T06:11:08.957Z,35.70
2018-05-04T06:12:05.841Z,35.70
2018-05-04T06:13:06.488Z,35.80
2018-05-04T06:14:06.155Z,35.70
2018-05-04T06:15:06.352Z,35.80
2018-05-04T06:16:06.244Z,36.00
2018-05-04T06:17:08.260Z,35.60
2018-05-04T06:18:06.117Z,35.60
2018-05-04T06:19:05.492Z,35.50
2018-05-04T06:20:08.422Z,35.80
2018-05-04T06:21:06.777Z,35.80
2018-05-04T06:22:05.881Z,35.80
2018-05-04T06:23:05.944Z,35.70
2018-05-04T06:24:06.319Z,35.20
2018-05-04T06:25:14.462Z,35.20
2018-05-04T06:26:06.296Z,35.20
2018-05-04T06:27:09.817Z,35.10
2018-05-04T06:28:09.241Z,35.30
2018-05-04T06:29:05.716Z,35.30
2018-05-04T06:30:06.406Z,35.20
2018-05-04T06:31:08.143Z,35.10
2018-05-04T06:32:05.908Z,35.10
2018-05-04T06:33:08.345Z,35.00
2018-05-04T06:34:09.018Z,35.10
2018-05-04T06:35:05.797Z,35.10
2018-05-04T06:36:10.390Z,35.10
2018-05-04T06:37:06.226Z,35.10
2018-05-04T06:38:05.770Z,35.20
2018-05-04T06:39:05.774Z,35.40
2018-05-04T06:40:09.806Z,35.20
2018-05-04T06:41:06.892Z,35.20
2018-05-04T06:42:08.729Z,35.30
2018-05-04T06:43:06.268Z,35.30
2018-05-04T06:44:06.344Z,35.20
2018-05-04T06:45:10.881Z,35.00
2018-05-04T06:46:05.465Z,35.00
2018-05-04T06:47:08.810Z,35.10
2018-05-04T06:48:05.815Z,35.10
2018-05-04T06:49:11.246Z,34.80
2018-05-04T06:50:10.729Z,34.80
2018-05-04T06:51:06.750Z,34.70
2018-05-04T06:52:10.078Z,34.80
2018-05-04T06:53:05.842Z,34.80
2018-05-04T06:54:05.733Z,35.00
2018-05-04T06:55:07.362Z,34.60
2018-05-04T06:56:05.950Z,34.90
2018-05-04T06:57:11.362Z,35.20
2018-05-04T06:58:06.589Z,35.20
2018-05-04T06:59:05.765Z,35.30
2018-05-04T07:00:09.185Z,35.30
2018-05-04T07:01:10.607Z,35.30
2018-05-04T07:02:06.267Z,35.00
2018-05-04T07:03:06.332Z,35.00
2018-05-04T07:04:05.945Z,9.10
2018-05-04T07:05:08.350Z,34.90
2018-05-04T07:06:10.232Z,35.10
2018-05-04T07:07:05.903Z,35.10
2018-05-04T07:08:10.693Z,34.60
2018-05-04T07:09:06.857Z,34.60
2018-05-04T07:10:05.666Z,34.80
2018-05-04T07:11:05.981Z,34.50
2018-05-04T07:12:06.271Z,34.70
2018-05-04T07:13:10.859Z,34.70
2018-05-04T07:14:08.244Z,34.50
2018-05-04T07:15:05.786Z,34.50
2018-05-04T07:16:10.616Z,34.60
2018-05-04T07:17:08.710Z,35.10
2018-05-04T07:18:08.722Z,35.40
2018-05-04T07:19:08.801Z,35.40
2018-05-04T07:20:06.273Z,35.40
2018-05-04T07:21:05.987Z,35.60
2018-05-04T07:22:05.815Z,35.70
2018-05-04T07:23:05.469Z,35.70
2018-05-04T07:24:06.533Z,35.80
2018-05-04T07:25:11.532Z,35.60
2018-05-04T07:26:16.053Z,35.70
2018-05-04T07:27:07.189Z,35.70
2018-05-04T07:28:06.076Z,35.60
2018-05-04T07:29:05.809Z,35.40
2018-05-04T07:30:06.175Z,35.40
2018-05-04T07:31:09.087Z,34.60
2018-05-04T07:32:05.631Z,34.60
2018-05-04T07:33:09.527Z,34.90
2018-05-04T07:34:08.990Z,34.80
2018-05-04T07:35:07.080Z,34.70
2018-05-04T07:36:09.853Z,34.90
2018-05-04T07:37:07.086Z,34.90
2018-05-04T07:38:05.963Z,34.90
2018-05-04T07:39:08.317Z,35.00
2018-05-04T07:40:05.977Z,35.10
2018-05-04T07:41:09.303Z,35.40
2018-05-04T07:42:10.183Z,35.50
2018-05-04T07:43:11.856Z,35.70
2018-05-04T07:44:11.581Z,35.70
2018-05-04T07:45:06.587Z,35.70
2018-05-04T07:46:05.631Z,35.70
2018-05-04T07:47:06.096Z,35.70
2018-05-04T07:48:09.522Z,35.50
2018-05-04T07:49:11.104Z,35.50
2018-05-04T07:50:08.335Z,35.60
2018-05-04T07:51:08.577Z,35.70
2018-05-04T07:52:08.709Z,35.50
2018-05-04T07:53:06.387Z,35.50
2018-05-04T07:54:06.374Z,35.80
2018-05-04T07:55:06.561Z,35.60
2018-05-04T07:56:05.883Z,35.70
2018-05-04T07:57:08.852Z,35.90
2018-05-04T07:58:11.455Z,36.00
2018-05-04T07:59:06.320Z,36.00
2018-05-04T08:00:08.783Z,36.00
2018-05-04T08:01:05.765Z,36.00
2018-05-04T08:02:06.197Z,36.00
2018-05-04T08:03:05.860Z,35.90
2018-05-04T08:04:10.682Z,36.00
2018-05-04T08:05:08.662Z,36.20
2018-05-04T08:06:08.684Z,36.40
2018-05-04T08:07:11.107Z,36.40
2018-05-04T08:08:05.725Z,36.40
2018-05-04T08:09:06.520Z,36.20
2018-05-04T08:10:06.229Z,36.30
2018-05-04T08:11:08.404Z,36.30
2018-05-04T08:12:08.803Z,36.20
2018-05-04T08:13:06.269Z,36.20
2018-05-04T08:14:06.075Z,36.30
2018-05-04T08:15:06.185Z,36.40
2018-05-04T08:16:06.065Z,36.40
2018-05-04T08:17:05.967Z,36.20
2018-05-04T08:18:11.254Z,36.20
2018-05-04T08:19:06.440Z,29.90
2018-05-04T08:20:06.444Z,36.50
2018-05-04T08:21:06.130Z,36.50
2018-05-04T08:22:09.085Z,35.90
2018-05-04T08:23:05.670Z,35.90
2018-05-04T08:24:06.426Z,35.90
2018-05-04T08:25:06.410Z,35.70
2018-05-04T08:26:06.198Z,35.70
2018-05-04T08:27:08.720Z,35.90
2018-05-04T08:28:09.859Z,35.70
2018-05-04T08:29:05.643Z,35.70
2018-05-04T08:30:08.280Z,36.00
2018-05-04T08:31:21.235Z,36.40
2018-05-04T08:32:10.813Z,36.40
2018-05-04T08:33:05.970Z,36.30
2018-05-04T08:34:08.059Z,36.10
2018-05-04T08:35:10.766Z,35.90
2018-05-04T08:36:06.465Z,35.90
2018-05-04T08:37:06.445Z,35.80
2018-05-04T08:38:06.582Z,35.90
2018-05-04T08:39:06.213Z,35.80
2018-05-04T08:40:08.365Z,36.10
2018-05-04T08:41:08.673Z,36.00
2018-05-04T08:42:08.751Z,35.80
2018-05-04T08:43:11.591Z,35.40
2018-05-04T08:44:06.654Z,35.50
2018-05-04T08:45:06.285Z,35.50
2018-05-04T08:46:06.652Z,35.20
2018-05-04T08:47:08.845Z,35.10
2018-05-04T08:48:11.627Z,35.20
2018-05-04T08:49:08.820Z,35.20
2018-05-04T08:50:11.170Z,35.20
2018-05-04T08:51:06.983Z,35.20
2018-05-04T08:52:05.829Z,35.30
2018-05-04T08:53:11.379Z,34.90
2018-05-04T08:54:06.178Z,34.90
2018-05-04T08:55:10.113Z,35.10
2018-05-04T08:56:06.113Z,35.10
2018-05-04T08:57:05.887Z,34.80
2018-05-04T08:58:05.675Z,34.80
2018-05-04T08:59:06.469Z,34.70
2018-05-04T09:00:08.336Z,34.70
2018-05-04T09:01:06.005Z,34.70
2018-05-04T09:02:05.774Z,35.00
2018-05-04T09:03:06.484Z,35.20
2018-05-04T09:04:08.751Z,35.30
2018-05-04T09:05:11.650Z,35.30
2018-05-04T09:06:05.579Z,35.30
2018-05-04T09:07:10.577Z,35.50
2018-05-04T09:08:08.757Z,35.90
2018-05-04T09:09:11.398Z,36.00
2018-05-04T09:10:08.117Z,36.10
2018-05-04T09:11:08.348Z,35.80
2018-05-04T09:12:05.986Z,35.80
2018-05-04T09:13:07.987Z,35.90
2018-05-04T09:14:08.301Z,35.90
2018-05-04T09:15:11.003Z,36.00
2018-05-04T09:16:08.446Z,36.00
2018-05-04T09:17:08.647Z,35.90
2018-05-04T09:18:06.543Z,36.00
2018-05-04T09:19:08.983Z,36.20
2018-05-04T09:20:05.775Z,36.20
2018-05-04T09:21:05.951Z,36.30
2018-05-04T09:22:06.349Z,36.30
2018-05-04T09:23:09.006Z,36.30
2018-05-04T09:24:08.127Z,36.50
2018-05-04T09:25:11.554Z,36.60
2018-05-04T09:26:10.983Z,36.60
2018-05-04T09:27:10.857Z,36.30
2018-05-04T09:28:11.603Z,36.10
2018-05-04T09:29:06.286Z,36.10
2018-05-04T09:30:06.314Z,36.10
2018-05-04T09:31:06.367Z,36.00
2018-05-04T09:32:05.780Z,36.00
2018-05-04T09:33:06.494Z,36.00
2018-05-04T09:34:05.686Z,35.30
2018-05-04T09:35:10.677Z,35.30
2018-05-04T09:36:06.415Z,35.50
2018-05-04T09:37:09.107Z,35.00
2018-05-04T09:38:05.772Z,34.90
2018-05-04T09:39:11.805Z,34.60
2018-05-04T09:40:06.517Z,34.60
2018-05-04T09:41:06.244Z,34.50
2018-05-04T09:42:08.849Z,34.20
2018-05-04T09:43:06.005Z,34.20
2018-05-04T09:44:05.765Z,33.90
2018-05-04T09:45:08.199Z,34.00
2018-05-04T09:46:08.885Z,34.00
2018-05-04T09:47:09.063Z,33.60
2018-05-04T09:48:05.742Z,33.60
2018-05-04T09:49:09.245Z,33.20
2018-05-04T09:50:06.038Z,33.20
2018-05-04T09:51:06.220Z,33.20
2018-05-04T09:52:11.266Z,33.30
2018-05-04T09:53:05.704Z,33.30
2018-05-04T09:54:06.547Z,32.90
2018-05-04T09:55:05.995Z,32.90
2018-05-04T09:56:10.963Z,33.10
2018-05-04T09:57:05.570Z,33.00
2018-05-04T09:58:06.093Z,32.20
2018-05-04T09:59:11.173Z,32.30
2018-05-04T10:00:06.228Z,32.90
2018-05-04T10:01:08.749Z,33.90
2018-05-04T10:02:08.467Z,33.70
2018-05-04T10:03:06.010Z,33.70
2018-05-04T10:04:05.765Z,34.00
2018-05-04T10:05:08.491Z,34.20
2018-05-04T10:06:06.094Z,34.20
2018-05-04T10:07:08.527Z,34.70
2018-05-04T10:08:06.191Z,34.70
2018-05-04T10:09:09.229Z,34.60
2018-05-04T10:10:08.329Z,34.10
2018-05-04T10:11:05.988Z,34.10
2018-05-04T10:12:08.093Z,34.00
2018-05-04T10:13:08.159Z,33.20
2018-05-04T10:14:12.105Z,33.10
2018-05-04T10:15:10.813Z,33.10
2018-05-04T10:16:07.164Z,33.10
2018-05-04T10:17:08.459Z,33.30
2018-05-04T10:18:11.002Z,33.30
2018-05-04T10:19:11.044Z,33.20
2018-05-04T10:20:08.283Z,32.90
2018-05-04T10:21:05.863Z,32.80
2018-05-04T10:22:08.890Z,33.30
2018-05-04T10:23:08.140Z,33.50
2018-05-04T10:24:06.504Z,33.50
2018-05-04T10:25:06.189Z,33.30
2018-05-04T10:26:08.441Z,33.50
2018-05-04T10:27:08.827Z,33.80
2018-05-04T10:28:06.426Z,33.90
2018-05-04T10:29:05.503Z,33.80
2018-05-04T10:30:05.587Z,33.90
2018-05-04T10:31:06.469Z,34.10
2018-05-04T10:32:09.043Z,33.40
2018-05-04T10:33:06.155Z,33.40
2018-05-04T10:34:08.342Z,33.90
2018-05-04T10:35:08.389Z,33.70
2018-05-04T10:36:06.094Z,33.70
2018-05-04T10:37:06.216Z,33.70
2018-05-04T10:38:05.542Z,34.00
2018-05-04T10:39:05.887Z,33.90
2018-05-04T10:40:06.125Z,34.20
2018-05-04T10:41:05.923Z,34.40
2018-05-04T10:42:05.667Z,34.70
2018-05-04T10:43:10.208Z,34.70
2018-05-04T10:44:08.208Z,34.80
2018-05-04T10:45:05.843Z,34.80
2018-05-04T10:46:11.111Z,35.20
2018-05-04T10:47:05.675Z,35.10
2018-05-04T10:48:11.366Z,35.30
2018-05-04T10:49:05.973Z,35.30
2018-05-04T10:50:05.716Z,35.40
2018-05-04T10:51:06.404Z,35.70
2018-05-04T10:52:06.476Z,35.70
2018-05-04T10:53:06.185Z,35.70
2018-05-04T10:54:05.527Z,35.80
2018-05-04T10:55:13.746Z,35.20
2018-05-04T10:56:10.117Z,34.60
2018-05-04T10:57:05.841Z,34.60
2018-05-04T10:58:06.574Z,34.70
2018-05-04T10:59:05.825Z,34.50
2018-05-04T11:00:05.962Z,34.00
2018-05-04T11:01:05.800Z,34.10
2018-05-04T11:02:07.446Z,34.10
2018-05-04T11:03:06.500Z,33.20
2018-05-04T11:04:08.882Z,33.40
2018-05-04T11:05:12.364Z,33.30
2018-05-04T11:06:06.127Z,33.10
2018-05-04T11:07:09.473Z,32.90
2018-05-04T11:08:05.965Z,32.80
2018-05-04T11:09:05.899Z,32.90
2018-05-04T11:10:08.857Z,32.80
2018-05-04T11:11:06.637Z,32.80
2018-05-04T11:12:06.186Z,32.80
2018-05-04T11:13:05.946Z,33.10
2018-05-04T11:14:05.644Z,33.00
2018-05-04T11:15:11.492Z,32.80
2018-05-04T11:16:10.338Z,33.10
2018-05-04T11:17:08.772Z,32.80
2018-05-04T11:18:06.415Z,32.70
2018-05-04T11:19:06.100Z,32.70
2018-05-04T11:20:10.843Z,33.10
2018-05-04T11:21:06.268Z,33.00
2018-05-04T11:22:08.536Z,32.70
2018-05-04T11:23:06.520Z,32.70
2018-05-04T11:24:06.507Z,32.80
2018-05-04T11:25:06.519Z,32.80
2018-05-04T11:26:06.375Z,33.00
2018-05-04T11:27:06.263Z,32.60
2018-05-04T11:28:06.003Z,32.10
2018-05-04T11:29:11.483Z,32.20
2018-05-04T11:30:06.945Z,32.20
2018-05-04T11:31:08.313Z,32.60
2018-05-04T11:32:09.151Z,33.00
2018-05-04T11:33:06.200Z,32.90
2018-05-04T11:34:05.796Z,32.90
2018-05-04T11:35:08.816Z,32.80
2018-05-04T11:36:09.492Z,32.90
2018-05-04T11:37:11.120Z,32.40
2018-05-04T11:38:09.458Z,32.60
2018-05-04T11:39:06.266Z,32.50
2018-05-04T11:40:05.949Z,32.60
2018-05-04T11:41:11.039Z,32.00
2018-05-04T11:42:05.640Z,32.10
2018-05-04T11:43:06.344Z,31.50
2018-05-04T11:44:05.927Z,31.40
2018-05-04T11:45:09.098Z,32.00
2018-05-04T11:46:10.798Z,32.70
2018-05-04T11:47:06.562Z,32.80
2018-05-04T11:48:05.817Z,33.10
2018-05-04T11:49:06.086Z,33.00
2018-05-04T11:50:07.454Z,32.40
2018-05-04T11:51:11.488Z,32.90
2018-05-04T11:52:06.018Z,32.90
2018-05-04T11:53:06.081Z,32.90
2018-05-04T11:54:10.670Z,33.00
2018-05-04T11:55:11.751Z,33.20
2018-05-04T11:56:05.983Z,33.20
2018-05-04T11:57:08.468Z,33.50
2018-05-04T11:58:06.054Z,33.50
2018-05-04T11:59:12.187Z,33.60
2018-05-04T12:00:08.421Z,33.60
2018-05-04T12:01:06.134Z,33.60
2018-05-04T12:02:06.218Z,33.60
2018-05-04T12:03:05.661Z,33.40
2018-05-04T12:04:06.214Z,34.20
2018-05-04T12:05:06.555Z,34.10
2018-05-04T12:06:11.296Z,33.70
2018-05-04T12:07:11.329Z,33.30
2018-05-04T12:08:06.368Z,33.30
2018-05-04T12:09:06.489Z,32.60
2018-05-04T12:10:05.866Z,32.70
2018-05-04T12:11:05.618Z,31.60
2018-05-04T12:12:08.861Z,31.40
2018-05-04T12:13:06.372Z,31.40
2018-05-04T12:14:09.177Z,32.10
2018-05-04T12:15:06.271Z,32.00
2018-05-04T12:16:05.783Z,31.40
2018-05-04T12:17:06.454Z,31.50
2018-05-04T12:18:08.670Z,31.20
2018-05-04T12:19:08.740Z,31.00
2018-05-04T12:20:11.477Z,31.00
2018-05-04T12:21:08.550Z,31.30
2018-05-04T12:22:06.219Z,31.30
2018-05-04T12:23:06.036Z,31.50
2018-05-04T12:24:11.390Z,31.60
2018-05-04T12:25:06.143Z,31.60
2018-05-04T12:26:06.405Z,32.10
2018-05-04T12:27:06.026Z,32.10
2018-05-04T12:28:10.762Z,32.40
2018-05-04T12:29:06.457Z,32.40
2018-05-04T12:30:06.035Z,32.30
2018-05-04T12:31:10.728Z,31.90
2018-05-04T12:32:06.488Z,31.90
2018-05-04T12:33:06.037Z,31.50
2018-05-04T12:34:06.757Z,31.60
2018-05-04T12:35:06.308Z,32.00
2018-05-04T12:36:10.695Z,32.40
2018-05-04T12:37:11.491Z,32.40
2018-05-04T12:38:06.083Z,32.10
2018-05-04T12:39:05.876Z,32.20
2018-05-04T12:40:05.665Z,32.40
2018-05-04T12:41:08.443Z,32.60
2018-05-04T12:42:08.565Z,32.60
2018-05-04T12:43:06.165Z,32.60
2018-05-04T12:44:06.454Z,33.00
2018-05-04T12:45:06.289Z,32.40
2018-05-04T12:46:08.469Z,32.20
2018-05-04T12:47:06.215Z,32.20
2018-05-04T12:48:11.468Z,32.50
2018-05-04T12:49:10.771Z,31.60
2018-05-04T12:50:08.781Z,31.70
2018-05-04T12:51:07.304Z,31.70
2018-05-04T12:52:08.850Z,32.30